sensor_id;sensor_type;location;lat;lon;timestamp;temperature;humidity
21823;DHT22;11074;48.596;9.238;2023-10-19T00:01:56;11.00;99.90
21823;DHT22;11074;48.596;9.238;2023-10-19T00:04:26;11.00;99.90
21823;DHT22;11074;48.596;9.238;2023-10-19T00:06:57;11.00;99.90
21823;DHT22;11074;48.596;9.238;2023-10-19T00:09:23;11.00;99.90
21823;DHT22;11074;48.596;9.238;2023-10-19T00:11:50;11.00;99.90
21823;DHT22;11074;48.596;9.238;2023-10-19T00:14:17;11.00;99.90
21823;DHT22;11074;48.596;9.238;2023-10-19T00:16:44;11.00;99.90
21823;DHT22;11074;48.596;9.238;2023-10-19T00:19:19;10.90;99.90
21823;DHT22;11074;48.596;9.238;2023-10-19T00:21:46;10.90;99.90
21823;DHT22;11074;48.596;9.238;2023-10-19T00:24:21;11.00;99.90
21823;DHT22;11074;48.596;9.238;2023-10-19T00:26:49;11.00;99.90
21823;DHT22;11074;48.596;9.238;2023-10-19T00:29:19;11.00;99.90
21823;DHT22;11074;48.596;9.238;2023-10-19T00:31:59;11.00;99.90
21823;DHT22;11074;48.596;9.238;2023-10-19T00:34:27;11.00;99.90
21823;DHT22;11074;48.596;9.238;2023-10-19T00:36:56;11.00;99.90
21823;DHT22;11074;48.596;9.238;2023-10-19T00:39:22;11.00;99.90
21823;DHT22;11074;48.596;9.238;2023-10-19T00:41:52;11.00;99.90
21823;DHT22;11074;48.596;9.238;2023-10-19T00:44:23;11.00;99.90
21823;DHT22;11074;48.596;9.238;2023-10-19T00:47:03;11.10;99.90
21823;DHT22;11074;48.596;9.238;2023-10-19T00:49:30;11.00;99.90
21823;DHT22;11074;48.596;9.238;2023-10-19T00:51:58;11.10;99.90
21823;DHT22;11074;48.596;9.238;2023-10-19T00:54:35;11.10;99.90
21823;DHT22;11074;48.596;9.238;2023-10-19T00:57:17;11.10;99.90
21823;DHT22;11074;48.596;9.238;2023-10-19T00:59:58;11.00;99.90
21823;DHT22;11074;48.596;9.238;2023-10-19T01:02:48;11.00;99.90
21823;DHT22;11074;48.596;9.238;2023-10-19T01:05:16;11.00;99.90
21823;DHT22;11074;48.596;9.238;2023-10-19T01:07:47;11.00;99.90
21823;DHT22;11074;48.596;9.238;2023-10-19T01:10:18;11.00;99.90
21823;DHT22;11074;48.596;9.238;2023-10-19T01:12:48;11.00;99.90
21823;DHT22;11074;48.596;9.238;2023-10-19T01:15:19;11.00;99.90
21823;DHT22;11074;48.596;9.238;2023-10-19T01:17:56;11.00;99.90
21823;DHT22;11074;48.596;9.238;2023-10-19T01:20:25;11.00;99.90
21823;DHT22;11074;48.596;9.238;2023-10-19T01:22:57;11.00;99.90
21823;DHT22;11074;48.596;9.238;2023-10-19T01:25:50;11.10;99.90
21823;DHT22;11074;48.596;9.238;2023-10-19T01:31:09;11.10;99.90
21823;DHT22;11074;48.596;9.238;2023-10-19T01:33:43;11.10;99.90
21823;DHT22;11074;48.596;9.238;2023-10-19T01:36:10;11.10;99.90
21823;DHT22;11074;48.596;9.238;2023-10-19T01:38:38;11.10;99.90
21823;DHT22;11074;48.596;9.238;2023-10-19T01:41:05;11.10;99.90
21823;DHT22;11074;48.596;9.238;2023-10-19T01:43:45;11.10;99.90
21823;DHT22;11074;48.596;9.238;2023-10-19T01:46:13;11.10;99.90
21823;DHT22;11074;48.596;9.238;2023-10-19T01:48:48;11.10;99.90
21823;DHT22;11074;48.596;9.238;2023-10-19T01:51:22;11.10;99.90
21823;DHT22;11074;48.596;9.238;2023-10-19T01:53:49;11.10;99.90
21823;DHT22;11074;48.596;9.238;2023-10-19T01:56:16;11.10;99.90
21823;DHT22;11074;48.596;9.238;2023-10-19T01:58:44;11.10;99.90
21823;DHT22;11074;48.596;9.238;2023-10-19T02:01:15;11.10;99.90
21823;DHT22;11074;48.596;9.238;2023-10-19T02:03:54;11.10;99.90
21823;DHT22;11074;48.596;9.238;2023-10-19T02:06:29;11.10;99.90
21823;DHT22;11074;48.596;9.238;2023-10-19T02:09:08;11.10;99.90
21823;DHT22;11074;48.596;9.238;2023-10-19T02:11:56;11.20;99.90
21823;DHT22;11074;48.596;9.238;2023-10-19T02:14:23;11.20;99.90
21823;DHT22;11074;48.596;9.238;2023-10-19T02:16:55;11.10;99.90
21823;DHT22;11074;48.596;9.238;2023-10-19T02:19:23;11.10;99.90
21823;DHT22;11074;48.596;9.238;2023-10-19T02:21:53;11.20;99.90
21823;DHT22;11074;48.596;9.238;2023-10-19T02:24:21;11.10;99.90
21823;DHT22;11074;48.596;9.238;2023-10-19T02:26:49;11.20;99.90
21823;DHT22;11074;48.596;9.238;2023-10-19T02:29:20;11.20;99.90
21823;DHT22;11074;48.596;9.238;2023-10-19T02:31:50;11.10;99.90
21823;DHT22;11074;48.596;9.238;2023-10-19T02:34:15;11.20;99.90
21823;DHT22;11074;48.596;9.238;2023-10-19T02:36:43;11.20;99.90
21823;DHT22;11074;48.596;9.238;2023-10-19T02:39:12;11.10;99.90
21823;DHT22;11074;48.596;9.238;2023-10-19T02:41:45;11.10;99.90
21823;DHT22;11074;48.596;9.238;2023-10-19T02:44:17;11.10;99.90
21823;DHT22;11074;48.596;9.238;2023-10-19T02:46:49;11.10;99.90
21823;DHT22;11074;48.596;9.238;2023-10-19T02:49:34;11.20;99.90
21823;DHT22;11074;48.596;9.238;2023-10-19T02:52:03;11.10;99.90
21823;DHT22;11074;48.596;9.238;2023-10-19T02:54:30;11.10;99.90
21823;DHT22;11074;48.596;9.238;2023-10-19T02:56:58;11.10;99.90
21823;DHT22;11074;48.596;9.238;2023-10-19T02:59:26;11.10;99.90
21823;DHT22;11074;48.596;9.238;2023-10-19T03:01:55;11.00;99.90
21823;DHT22;11074;48.596;9.238;2023-10-19T03:04:38;11.00;99.90
21823;DHT22;11074;48.596;9.238;2023-10-19T03:07:06;11.00;99.90
21823;DHT22;11074;48.596;9.238;2023-10-19T03:09:41;11.00;99.90
21823;DHT22;11074;48.596;9.238;2023-10-19T03:12:20;11.00;99.90
21823;DHT22;11074;48.596;9.238;2023-10-19T03:14:50;11.00;99.90
21823;DHT22;11074;48.596;9.238;2023-10-19T03:17:16;11.00;99.90
21823;DHT22;11074;48.596;9.238;2023-10-19T03:19:42;11.00;99.90
21823;DHT22;11074;48.596;9.238;2023-10-19T03:22:07;11.00;99.90
21823;DHT22;11074;48.596;9.238;2023-10-19T03:24:34;11.00;99.90
21823;DHT22;11074;48.596;9.238;2023-10-19T03:27:15;10.90;99.90
21823;DHT22;11074;48.596;9.238;2023-10-19T03:29:47;10.90;99.90
21823;DHT22;11074;48.596;9.238;2023-10-19T03:32:20;10.90;99.90
21823;DHT22;11074;48.596;9.238;2023-10-19T03:34:57;10.90;99.90
21823;DHT22;11074;48.596;9.238;2023-10-19T03:37:23;10.90;99.90
21823;DHT22;11074;48.596;9.238;2023-10-19T03:39:50;10.90;99.90
21823;DHT22;11074;48.596;9.238;2023-10-19T03:42:17;10.90;99.90
21823;DHT22;11074;48.596;9.238;2023-10-19T03:44:43;10.80;99.90
21823;DHT22;11074;48.596;9.238;2023-10-19T03:47:09;10.80;99.90
21823;DHT22;11074;48.596;9.238;2023-10-19T03:49:38;10.80;99.90
21823;DHT22;11074;48.596;9.238;2023-10-19T03:52:05;10.80;99.90
21823;DHT22;11074;48.596;9.238;2023-10-19T03:54:35;10.80;99.90
21823;DHT22;11074;48.596;9.238;2023-10-19T03:57:04;10.80;99.90
21823;DHT22;11074;48.596;9.238;2023-10-19T03:59:32;10.80;99.90
21823;DHT22;11074;48.596;9.238;2023-10-19T04:02:00;10.70;99.90
21823;DHT22;11074;48.596;9.238;2023-10-19T04:04:31;10.70;99.90
21823;DHT22;11074;48.596;9.238;2023-10-19T04:06:56;10.70;99.90
21823;DHT22;11074;48.596;9.238;2023-10-19T04:09:25;10.70;99.90
21823;DHT22;11074;48.596;9.238;2023-10-19T04:11:59;10.70;99.90
21823;DHT22;11074;48.596;9.238;2023-10-19T04:14:27;10.70;99.90
21823;DHT22;11074;48.596;9.238;2023-10-19T04:16:56;10.70;99.90
21823;DHT22;11074;48.596;9.238;2023-10-19T04:19:21;10.70;99.90
21823;DHT22;11074;48.596;9.238;2023-10-19T04:21:47;10.80;99.90
21823;DHT22;11074;48.596;9.238;2023-10-19T04:24:13;10.70;99.90
21823;DHT22;11074;48.596;9.238;2023-10-19T04:26:40;10.70;99.90
21823;DHT22;11074;48.596;9.238;2023-10-19T04:29:06;10.70;99.90
21823;DHT22;11074;48.596;9.238;2023-10-19T04:31:37;10.80;99.90
21823;DHT22;11074;48.596;9.238;2023-10-19T04:34:13;10.70;99.90
21823;DHT22;11074;48.596;9.238;2023-10-19T04:36:38;10.70;99.90
21823;DHT22;11074;48.596;9.238;2023-10-19T04:39:05;10.60;99.90
21823;DHT22;11074;48.596;9.238;2023-10-19T04:41:30;10.60;99.90
21823;DHT22;11074;48.596;9.238;2023-10-19T04:43:56;10.60;99.90
21823;DHT22;11074;48.596;9.238;2023-10-19T04:46:24;10.50;99.90
21823;DHT22;11074;48.596;9.238;2023-10-19T04:48:49;10.60;99.90
21823;DHT22;11074;48.596;9.238;2023-10-19T04:51:15;10.60;99.90
21823;DHT22;11074;48.596;9.238;2023-10-19T04:53:42;10.60;99.90
21823;DHT22;11074;48.596;9.238;2023-10-19T04:56:08;10.70;99.90
21823;DHT22;11074;48.596;9.238;2023-10-19T04:58:35;10.60;99.90
21823;DHT22;11074;48.596;9.238;2023-10-19T05:01:01;10.70;99.90
21823;DHT22;11074;48.596;9.238;2023-10-19T05:03:29;10.60;99.90
21823;DHT22;11074;48.596;9.238;2023-10-19T05:05:55;10.60;99.90
21823;DHT22;11074;48.596;9.238;2023-10-19T05:08:24;10.50;99.90
21823;DHT22;11074;48.596;9.238;2023-10-19T05:10:52;10.50;99.90
21823;DHT22;11074;48.596;9.238;2023-10-19T05:13:20;10.50;99.90
21823;DHT22;11074;48.596;9.238;2023-10-19T05:15:51;10.50;99.90
21823;DHT22;11074;48.596;9.238;2023-10-19T05:18:18;10.50;99.90
21823;DHT22;11074;48.596;9.238;2023-10-19T05:20:45;10.50;99.90
21823;DHT22;11074;48.596;9.238;2023-10-19T05:23:11;10.60;99.90
21823;DHT22;11074;48.596;9.238;2023-10-19T05:25:39;10.60;99.90
21823;DHT22;11074;48.596;9.238;2023-10-19T05:28:05;10.60;99.90
21823;DHT22;11074;48.596;9.238;2023-10-19T05:30:32;10.60;99.90
21823;DHT22;11074;48.596;9.238;2023-10-19T05:32:59;10.50;99.90
21823;DHT22;11074;48.596;9.238;2023-10-19T05:35:27;10.60;99.90
21823;DHT22;11074;48.596;9.238;2023-10-19T05:37:54;10.60;99.90
21823;DHT22;11074;48.596;9.238;2023-10-19T05:40:23;10.60;99.90
21823;DHT22;11074;48.596;9.238;2023-10-19T05:42:54;10.60;99.90
21823;DHT22;11074;48.596;9.238;2023-10-19T05:45:24;10.60;99.90
21823;DHT22;11074;48.596;9.238;2023-10-19T05:47:50;10.60;99.90
21823;DHT22;11074;48.596;9.238;2023-10-19T05:50:16;10.60;99.90
21823;DHT22;11074;48.596;9.238;2023-10-19T05:52:43;10.70;99.90
21823;DHT22;11074;48.596;9.238;2023-10-19T05:55:09;10.70;99.90
21823;DHT22;11074;48.596;9.238;2023-10-19T05:57:39;10.70;99.90
21823;DHT22;11074;48.596;9.238;2023-10-19T06:00:09;10.70;99.90
21823;DHT22;11074;48.596;9.238;2023-10-19T06:02:43;10.60;99.90
21823;DHT22;11074;48.596;9.238;2023-10-19T06:05:10;10.60;99.90
21823;DHT22;11074;48.596;9.238;2023-10-19T06:07:36;10.60;99.90
21823;DHT22;11074;48.596;9.238;2023-10-19T06:10:03;10.70;99.90
21823;DHT22;11074;48.596;9.238;2023-10-19T06:12:33;10.70;99.90
21823;DHT22;11074;48.596;9.238;2023-10-19T06:15:00;10.70;99.90
21823;DHT22;11074;48.596;9.238;2023-10-19T06:17:29;10.70;99.90
21823;DHT22;11074;48.596;9.238;2023-10-19T06:19:55;10.70;99.90
21823;DHT22;11074;48.596;9.238;2023-10-19T06:22:21;10.70;99.90
21823;DHT22;11074;48.596;9.238;2023-10-19T06:24:47;10.70;99.90
21823;DHT22;11074;48.596;9.238;2023-10-19T06:27:12;10.70;99.90
21823;DHT22;11074;48.596;9.238;2023-10-19T06:29:38;10.70;99.90
21823;DHT22;11074;48.596;9.238;2023-10-19T06:32:04;10.70;99.90
21823;DHT22;11074;48.596;9.238;2023-10-19T06:34:29;10.80;99.90
21823;DHT22;11074;48.596;9.238;2023-10-19T06:36:55;10.80;99.90
21823;DHT22;11074;48.596;9.238;2023-10-19T06:39:21;10.70;99.90
21823;DHT22;11074;48.596;9.238;2023-10-19T06:41:47;10.70;99.90
21823;DHT22;11074;48.596;9.238;2023-10-19T06:44:14;10.70;99.90
21823;DHT22;11074;48.596;9.238;2023-10-19T06:46:42;10.70;99.90
21823;DHT22;11074;48.596;9.238;2023-10-19T06:49:09;10.70;99.90
21823;DHT22;11074;48.596;9.238;2023-10-19T06:51:34;10.70;99.90
21823;DHT22;11074;48.596;9.238;2023-10-19T06:54:02;10.70;99.90
21823;DHT22;11074;48.596;9.238;2023-10-19T06:56:28;10.70;99.90
21823;DHT22;11074;48.596;9.238;2023-10-19T06:58:54;10.70;99.90
21823;DHT22;11074;48.596;9.238;2023-10-19T07:01:20;10.70;99.90
21823;DHT22;11074;48.596;9.238;2023-10-19T07:03:51;10.80;99.90
21823;DHT22;11074;48.596;9.238;2023-10-19T07:06:19;10.70;99.90
21823;DHT22;11074;48.596;9.238;2023-10-19T07:08:44;10.70;99.90
21823;DHT22;11074;48.596;9.238;2023-10-19T07:11:11;10.80;99.90
21823;DHT22;11074;48.596;9.238;2023-10-19T07:13:37;10.80;99.90
21823;DHT22;11074;48.596;9.238;2023-10-19T07:16:05;10.80;99.90
21823;DHT22;11074;48.596;9.238;2023-10-19T07:18:34;10.80;99.90
21823;DHT22;11074;48.596;9.238;2023-10-19T07:21:02;10.80;99.90
21823;DHT22;11074;48.596;9.238;2023-10-19T07:23:28;10.80;99.90
21823;DHT22;11074;48.596;9.238;2023-10-19T07:25:54;10.90;99.90
21823;DHT22;11074;48.596;9.238;2023-10-19T07:28:22;10.90;99.90
21823;DHT22;11074;48.596;9.238;2023-10-19T07:30:52;10.90;99.90
21823;DHT22;11074;48.596;9.238;2023-10-19T07:33:18;10.90;99.90
21823;DHT22;11074;48.596;9.238;2023-10-19T07:35:49;11.00;99.90
21823;DHT22;11074;48.596;9.238;2023-10-19T07:38:26;11.00;99.90
21823;DHT22;11074;48.596;9.238;2023-10-19T07:40:53;11.00;99.90
21823;DHT22;11074;48.596;9.238;2023-10-19T07:43:19;11.00;99.90
21823;DHT22;11074;48.596;9.238;2023-10-19T07:45:46;11.00;99.90
21823;DHT22;11074;48.596;9.238;2023-10-19T07:48:13;11.00;99.90
21823;DHT22;11074;48.596;9.238;2023-10-19T07:50:40;11.10;99.90
21823;DHT22;11074;48.596;9.238;2023-10-19T07:53:06;11.10;99.90
21823;DHT22;11074;48.596;9.238;2023-10-19T07:55:32;11.20;99.90
21823;DHT22;11074;48.596;9.238;2023-10-19T07:57:58;11.20;99.90
21823;DHT22;11074;48.596;9.238;2023-10-19T08:00:32;11.20;99.90
21823;DHT22;11074;48.596;9.238;2023-10-19T08:03:01;11.20;99.90
21823;DHT22;11074;48.596;9.238;2023-10-19T08:05:28;11.20;99.90
21823;DHT22;11074;48.596;9.238;2023-10-19T08:07:54;11.30;99.90
21823;DHT22;11074;48.596;9.238;2023-10-19T08:10:22;11.30;99.90
21823;DHT22;11074;48.596;9.238;2023-10-19T08:12:49;11.30;99.90
21823;DHT22;11074;48.596;9.238;2023-10-19T08:15:16;11.30;99.90
21823;DHT22;11074;48.596;9.238;2023-10-19T08:17:46;11.30;99.90
21823;DHT22;11074;48.596;9.238;2023-10-19T08:20:15;11.30;99.90
21823;DHT22;11074;48.596;9.238;2023-10-19T08:22:42;11.40;99.90
21823;DHT22;11074;48.596;9.238;2023-10-19T08:25:13;11.40;99.90
21823;DHT22;11074;48.596;9.238;2023-10-19T08:27:46;11.40;99.90
21823;DHT22;11074;48.596;9.238;2023-10-19T08:30:18;11.40;99.90
21823;DHT22;11074;48.596;9.238;2023-10-19T08:32:47;11.40;99.90
21823;DHT22;11074;48.596;9.238;2023-10-19T08:35:20;11.50;99.90
21823;DHT22;11074;48.596;9.238;2023-10-19T08:37:50;11.50;99.90
21823;DHT22;11074;48.596;9.238;2023-10-19T08:40:20;11.60;99.90
21823;DHT22;11074;48.596;9.238;2023-10-19T08:42:47;11.60;99.90
21823;DHT22;11074;48.596;9.238;2023-10-19T08:45:14;11.60;99.90
21823;DHT22;11074;48.596;9.238;2023-10-19T08:48:00;11.70;99.90
21823;DHT22;11074;48.596;9.238;2023-10-19T08:50:29;11.80;99.90
21823;DHT22;11074;48.596;9.238;2023-10-19T08:52:59;11.80;99.90
21823;DHT22;11074;48.596;9.238;2023-10-19T08:55:30;11.80;99.90
21823;DHT22;11074;48.596;9.238;2023-10-19T08:57:56;11.90;99.90
21823;DHT22;11074;48.596;9.238;2023-10-19T09:00:24;12.00;99.90
21823;DHT22;11074;48.596;9.238;2023-10-19T09:02:53;12.00;99.90
21823;DHT22;11074;48.596;9.238;2023-10-19T09:05:19;12.10;99.90
21823;DHT22;11074;48.596;9.238;2023-10-19T09:07:48;12.10;99.90
21823;DHT22;11074;48.596;9.238;2023-10-19T09:10:24;12.20;99.90
21823;DHT22;11074;48.596;9.238;2023-10-19T09:13:04;12.20;99.90
21823;DHT22;11074;48.596;9.238;2023-10-19T09:15:37;12.20;99.90
21823;DHT22;11074;48.596;9.238;2023-10-19T09:18:12;12.20;99.90
21823;DHT22;11074;48.596;9.238;2023-10-19T09:20:43;12.20;99.90
21823;DHT22;11074;48.596;9.238;2023-10-19T09:23:23;12.30;99.90
21823;DHT22;11074;48.596;9.238;2023-10-19T09:25:51;12.30;99.90
21823;DHT22;11074;48.596;9.238;2023-10-19T09:28:21;12.40;99.90
21823;DHT22;11074;48.596;9.238;2023-10-19T09:30:50;12.40;99.90
21823;DHT22;11074;48.596;9.238;2023-10-19T09:33:17;12.40;99.90
21823;DHT22;11074;48.596;9.238;2023-10-19T09:35:45;12.50;99.90
21823;DHT22;11074;48.596;9.238;2023-10-19T09:38:17;12.50;99.90
21823;DHT22;11074;48.596;9.238;2023-10-19T09:40:51;12.50;99.90
21823;DHT22;11074;48.596;9.238;2023-10-19T09:46:12;12.60;99.90
21823;DHT22;11074;48.596;9.238;2023-10-19T09:48:48;12.60;99.90
21823;DHT22;11074;48.596;9.238;2023-10-19T09:51:15;12.60;99.90
21823;DHT22;11074;48.596;9.238;2023-10-19T09:53:48;12.60;99.90
21823;DHT22;11074;48.596;9.238;2023-10-19T09:56:30;12.70;99.90
21823;DHT22;11074;48.596;9.238;2023-10-19T09:59:05;12.70;99.90
21823;DHT22;11074;48.596;9.238;2023-10-19T10:02:09;12.70;99.90
21823;DHT22;11074;48.596;9.238;2023-10-19T10:04:40;12.70;99.90
21823;DHT22;11074;48.596;9.238;2023-10-19T10:07:08;12.70;99.90
21823;DHT22;11074;48.596;9.238;2023-10-19T10:09:37;12.70;99.90
21823;DHT22;11074;48.596;9.238;2023-10-19T10:12:19;12.80;99.90
21823;DHT22;11074;48.596;9.238;2023-10-19T10:14:58;12.80;99.90
21823;DHT22;11074;48.596;9.238;2023-10-19T10:17:27;12.80;99.90
21823;DHT22;11074;48.596;9.238;2023-10-19T10:20:40;12.90;99.90
21823;DHT22;11074;48.596;9.238;2023-10-19T10:22:42;12.90;99.90
21823;DHT22;11074;48.596;9.238;2023-10-19T10:25:25;12.90;99.90
21823;DHT22;11074;48.596;9.238;2023-10-19T10:27:53;13.00;99.90
21823;DHT22;11074;48.596;9.238;2023-10-19T10:30:21;13.00;99.90
21823;DHT22;11074;48.596;9.238;2023-10-19T10:32:49;13.10;99.90
21823;DHT22;11074;48.596;9.238;2023-10-19T10:38:06;13.20;99.90
21823;DHT22;11074;48.596;9.238;2023-10-19T10:40:47;13.20;99.90
21823;DHT22;11074;48.596;9.238;2023-10-19T10:43:15;13.20;99.90
21823;DHT22;11074;48.596;9.238;2023-10-19T10:45:42;13.20;99.90
21823;DHT22;11074;48.596;9.238;2023-10-19T10:48:16;13.30;99.90
21823;DHT22;11074;48.596;9.238;2023-10-19T10:50:43;13.30;99.90
21823;DHT22;11074;48.596;9.238;2023-10-19T10:53:12;13.20;99.90
21823;DHT22;11074;48.596;9.238;2023-10-19T10:55:39;13.20;99.90
21823;DHT22;11074;48.596;9.238;2023-10-19T10:58:05;13.20;99.90
21823;DHT22;11074;48.596;9.238;2023-10-19T11:00:30;13.30;99.90
21823;DHT22;11074;48.596;9.238;2023-10-19T11:03:06;13.30;99.90
21823;DHT22;11074;48.596;9.238;2023-10-19T11:05:33;13.30;99.90
21823;DHT22;11074;48.596;9.238;2023-10-19T11:08:16;13.20;99.90
21823;DHT22;11074;48.596;9.238;2023-10-19T11:10:44;13.30;99.90
21823;DHT22;11074;48.596;9.238;2023-10-19T11:13:16;13.30;99.90
21823;DHT22;11074;48.596;9.238;2023-10-19T11:15:53;13.30;99.90
21823;DHT22;11074;48.596;9.238;2023-10-19T11:18:35;13.30;99.90
21823;DHT22;11074;48.596;9.238;2023-10-19T11:21:05;13.30;99.90
21823;DHT22;11074;48.596;9.238;2023-10-19T11:26:12;13.30;99.90
21823;DHT22;11074;48.596;9.238;2023-10-19T11:28:40;13.30;99.90
21823;DHT22;11074;48.596;9.238;2023-10-19T11:31:23;13.30;99.90
21823;DHT22;11074;48.596;9.238;2023-10-19T11:33:50;13.30;99.90
21823;DHT22;11074;48.596;9.238;2023-10-19T11:36:19;13.30;99.90
21823;DHT22;11074;48.596;9.238;2023-10-19T11:38:47;13.30;99.90
21823;DHT22;11074;48.596;9.238;2023-10-19T11:41:15;13.40;99.90
21823;DHT22;11074;48.596;9.238;2023-10-19T11:43:44;13.40;99.90
21823;DHT22;11074;48.596;9.238;2023-10-19T11:46:10;13.50;99.90
21823;DHT22;11074;48.596;9.238;2023-10-19T11:48:48;13.50;99.90
21823;DHT22;11074;48.596;9.238;2023-10-19T11:51:14;13.50;99.90
21823;DHT22;11074;48.596;9.238;2023-10-19T11:53:41;13.50;99.90
21823;DHT22;11074;48.596;9.238;2023-10-19T11:56:09;13.50;99.90
21823;DHT22;11074;48.596;9.238;2023-10-19T11:58:38;13.60;99.90
21823;DHT22;11074;48.596;9.238;2023-10-19T12:01:08;13.70;99.90
21823;DHT22;11074;48.596;9.238;2023-10-19T12:03:37;13.70;99.90
21823;DHT22;11074;48.596;9.238;2023-10-19T12:06:09;13.60;99.90
21823;DHT22;11074;48.596;9.238;2023-10-19T12:08:36;13.60;99.90
21823;DHT22;11074;48.596;9.238;2023-10-19T12:11:04;13.70;99.90
21823;DHT22;11074;48.596;9.238;2023-10-19T12:13:35;13.70;99.90
21823;DHT22;11074;48.596;9.238;2023-10-19T12:16:01;13.70;99.90
21823;DHT22;11074;48.596;9.238;2023-10-19T12:18:30;13.70;99.90
21823;DHT22;11074;48.596;9.238;2023-10-19T12:20:55;13.60;99.90
21823;DHT22;11074;48.596;9.238;2023-10-19T12:23:27;13.60;99.90
21823;DHT22;11074;48.596;9.238;2023-10-19T12:25:56;13.60;99.90
21823;DHT22;11074;48.596;9.238;2023-10-19T12:28:21;13.60;99.90
21823;DHT22;11074;48.596;9.238;2023-10-19T12:30:50;13.60;99.90
21823;DHT22;11074;48.596;9.238;2023-10-19T12:33:16;13.60;99.90
21823;DHT22;11074;48.596;9.238;2023-10-19T12:35:42;13.60;99.90
21823;DHT22;11074;48.596;9.238;2023-10-19T12:38:19;13.60;99.90
21823;DHT22;11074;48.596;9.238;2023-10-19T12:40:50;13.60;99.90
21823;DHT22;11074;48.596;9.238;2023-10-19T12:43:19;13.70;99.90
21823;DHT22;11074;48.596;9.238;2023-10-19T12:45:48;13.70;99.90
21823;DHT22;11074;48.596;9.238;2023-10-19T12:48:22;13.70;99.90
21823;DHT22;11074;48.596;9.238;2023-10-19T12:50:55;13.70;99.90
21823;DHT22;11074;48.596;9.238;2023-10-19T12:53:21;13.80;99.90
21823;DHT22;11074;48.596;9.238;2023-10-19T12:55:50;13.90;99.90
21823;DHT22;11074;48.596;9.238;2023-10-19T12:58:17;13.80;99.90
21823;DHT22;11074;48.596;9.238;2023-10-19T13:00:46;13.80;99.90
21823;DHT22;11074;48.596;9.238;2023-10-19T13:03:15;13.80;99.90
21823;DHT22;11074;48.596;9.238;2023-10-19T13:05:44;13.80;99.90
21823;DHT22;11074;48.596;9.238;2023-10-19T13:08:13;13.90;99.90
21823;DHT22;11074;48.596;9.238;2023-10-19T13:10:41;14.00;99.90
21823;DHT22;11074;48.596;9.238;2023-10-19T13:13:09;14.00;99.90
21823;DHT22;11074;48.596;9.238;2023-10-19T13:15:44;14.00;99.90
21823;DHT22;11074;48.596;9.238;2023-10-19T13:18:12;14.10;99.90
21823;DHT22;11074;48.596;9.238;2023-10-19T13:20:41;14.20;99.90
21823;DHT22;11074;48.596;9.238;2023-10-19T13:23:10;14.30;99.90
21823;DHT22;11074;48.596;9.238;2023-10-19T13:25:42;14.40;99.90
21823;DHT22;11074;48.596;9.238;2023-10-19T13:28:20;14.40;99.90
21823;DHT22;11074;48.596;9.238;2023-10-19T13:30:49;14.50;99.90
21823;DHT22;11074;48.596;9.238;2023-10-19T13:33:16;14.40;99.90
21823;DHT22;11074;48.596;9.238;2023-10-19T13:35:45;14.40;99.90
21823;DHT22;11074;48.596;9.238;2023-10-19T13:38:12;14.40;99.90
21823;DHT22;11074;48.596;9.238;2023-10-19T13:40:41;14.30;99.90
21823;DHT22;11074;48.596;9.238;2023-10-19T13:43:08;14.40;99.90
21823;DHT22;11074;48.596;9.238;2023-10-19T13:45:42;14.40;99.90
21823;DHT22;11074;48.596;9.238;2023-10-19T13:48:09;14.40;99.90
21823;DHT22;11074;48.596;9.238;2023-10-19T13:50:42;14.40;99.90
21823;DHT22;11074;48.596;9.238;2023-10-19T13:53:11;14.40;99.90
21823;DHT22;11074;48.596;9.238;2023-10-19T13:55:37;14.40;99.90
21823;DHT22;11074;48.596;9.238;2023-10-19T13:58:02;14.40;99.90
21823;DHT22;11074;48.596;9.238;2023-10-19T14:00:28;14.30;99.90
21823;DHT22;11074;48.596;9.238;2023-10-19T14:02:58;14.30;99.90
21823;DHT22;11074;48.596;9.238;2023-10-19T14:05:27;14.30;99.90
21823;DHT22;11074;48.596;9.238;2023-10-19T14:07:53;14.30;99.90
21823;DHT22;11074;48.596;9.238;2023-10-19T14:10:19;14.30;99.90
21823;DHT22;11074;48.596;9.238;2023-10-19T14:12:47;14.30;99.90
21823;DHT22;11074;48.596;9.238;2023-10-19T14:15:16;14.30;99.90
21823;DHT22;11074;48.596;9.238;2023-10-19T14:17:43;14.30;99.90
21823;DHT22;11074;48.596;9.238;2023-10-19T14:20:14;14.30;99.90
21823;DHT22;11074;48.596;9.238;2023-10-19T14:22:45;14.30;99.90
21823;DHT22;11074;48.596;9.238;2023-10-19T14:25:13;14.30;99.90
21823;DHT22;11074;48.596;9.238;2023-10-19T14:27:44;14.30;99.90
21823;DHT22;11074;48.596;9.238;2023-10-19T14:30:12;14.30;99.90
21823;DHT22;11074;48.596;9.238;2023-10-19T14:32:40;14.30;99.90
21823;DHT22;11074;48.596;9.238;2023-10-19T14:35:11;14.30;99.90
21823;DHT22;11074;48.596;9.238;2023-10-19T14:37:41;14.40;99.90
21823;DHT22;11074;48.596;9.238;2023-10-19T14:40:13;14.40;99.90
21823;DHT22;11074;48.596;9.238;2023-10-19T14:42:42;14.30;99.90
21823;DHT22;11074;48.596;9.238;2023-10-19T14:45:12;14.40;99.90
21823;DHT22;11074;48.596;9.238;2023-10-19T14:47:44;14.30;99.90
21823;DHT22;11074;48.596;9.238;2023-10-19T14:50:13;14.30;99.90
21823;DHT22;11074;48.596;9.238;2023-10-19T14:52:44;14.20;99.90
21823;DHT22;11074;48.596;9.238;2023-10-19T14:55:12;14.30;99.90
21823;DHT22;11074;48.596;9.238;2023-10-19T14:57:43;14.20;99.90
21823;DHT22;11074;48.596;9.238;2023-10-19T15:00:18;14.30;99.90
21823;DHT22;11074;48.596;9.238;2023-10-19T15:02:59;14.30;99.90
21823;DHT22;11074;48.596;9.238;2023-10-19T15:05:27;14.30;99.90
21823;DHT22;11074;48.596;9.238;2023-10-19T15:07:54;14.30;99.90
21823;DHT22;11074;48.596;9.238;2023-10-19T15:10:22;14.40;99.90
21823;DHT22;11074;48.596;9.238;2023-10-19T15:12:49;14.40;99.90
21823;DHT22;11074;48.596;9.238;2023-10-19T15:15:15;14.40;99.90
21823;DHT22;11074;48.596;9.238;2023-10-19T15:17:45;14.40;99.90
21823;DHT22;11074;48.596;9.238;2023-10-19T15:20:13;14.40;99.90
21823;DHT22;11074;48.596;9.238;2023-10-19T15:22:43;14.40;99.90
21823;DHT22;11074;48.596;9.238;2023-10-19T15:25:11;14.50;99.90
21823;DHT22;11074;48.596;9.238;2023-10-19T15:27:42;14.50;99.90
21823;DHT22;11074;48.596;9.238;2023-10-19T15:30:10;14.60;99.90
21823;DHT22;11074;48.596;9.238;2023-10-19T15:32:38;14.50;99.90
21823;DHT22;11074;48.596;9.238;2023-10-19T15:35:07;14.50;99.90
21823;DHT22;11074;48.596;9.238;2023-10-19T15:37:38;14.50;99.90
21823;DHT22;11074;48.596;9.238;2023-10-19T15:40:04;14.40;99.90
21823;DHT22;11074;48.596;9.238;2023-10-19T15:42:30;14.40;99.90
21823;DHT22;11074;48.596;9.238;2023-10-19T15:44:56;14.50;99.90
21823;DHT22;11074;48.596;9.238;2023-10-19T15:47:22;14.40;99.90
21823;DHT22;11074;48.596;9.238;2023-10-19T15:49:51;14.30;99.90
21823;DHT22;11074;48.596;9.238;2023-10-19T15:52:26;14.40;99.90
21823;DHT22;11074;48.596;9.238;2023-10-19T15:54:57;14.30;99.90
21823;DHT22;11074;48.596;9.238;2023-10-19T15:57:23;14.30;99.90